Time;durP1;ratioP1;P1;durP2;ratioP2;P2;SDS_P1;SDS_P2;PMS_P1;PMS_P2;Temp;Humidity;BMP_temperature;BMP_pressure;BME280_temperature;BME280_humidity;BME280_pressure;Samples;Min_cycle;Max_cycle;Signal;HPM_P1;HPM_P2
2023/05/17 05:33:53;;;;;;;;;27.25;23.75;;;;;;;;6323648;22;47051;-78
2023/05/17 05:36:18;;;;;;;;;25.75;16.50;;;;;;;;6342669;22;45273;-82
2023/05/17 05:38:43;;;;;;;;;22.00;18.00;;;;;;;;6372713;22;45260;-79
2023/05/17 05:41:08;;;;;;;;;28.50;23.75;;;;;;;;6344302;22;45527;-81
2023/05/17 05:43:34;;;;;;;;;24.00;23.75;;;;;;;;6372021;22;45351;-81
2023/05/17 05:46:00;;;;;;;;;25.50;22.00;;;;;;;;6372640;22;45297;-82
2023/05/17 05:48:25;;;;;;;;;23.25;19.00;;;;;;;;6371974;22;45277;-81
2023/05/17 05:50:50;;;;;;;;;25.50;22.50;;;;;;;;6372379;22;45315;-82
2023/05/17 05:53:15;;;;;;;;;22.00;18.75;;;;;;;;6372082;22;46448;-80
2023/05/17 05:55:41;;;;;;;;;21.50;20.50;;;;;;;;6372330;22;45297;-74
2023/05/17 05:58:06;;;;;;;;;28.75;20.50;;;;;;;;6372462;22;45185;-82
2023/05/17 06:00:31;;;;;;;;;25.50;20.25;;;;;;;;6372203;22;45379;-80
2023/05/17 06:02:57;;;;;;;;;22.50;21.75;;;;;;;;6369840;22;46530;-84
2023/05/17 06:05:22;;;;;;;;;23.50;21.00;;;;;;;;6341485;22;45269;-82
2023/05/17 06:07:47;;;;;;;;;22.50;21.25;;;;;;;;6370558;22;45182;-82
2023/05/17 06:10:12;;;;;;;;;23.25;21.00;;;;;;;;6371010;22;45359;-83
2023/05/17 06:12:37;;;;;;;;;21.00;15.00;;;;;;;;6370753;22;45561;-80
2023/05/17 06:15:03;;;;;;;;;22.25;19.50;;;;;;;;6370759;22;45206;-83
2023/05/17 06:17:28;;;;;;;;;25.75;20.50;;;;;;;;6371020;22;45206;-84
2023/05/17 06:19:53;;;;;;;;;17.75;16.50;;;;;;;;6370563;22;45429;-85
2023/05/17 06:22:18;;;;;;;;;23.50;21.25;;;;;;;;6372682;22;45432;-80
2023/05/17 06:24:44;;;;;;;;;22.00;21.75;;;;;;;;6371684;22;45383;-80
2023/05/17 06:27:09;;;;;;;;;30.25;23.75;;;;;;;;6370796;22;45193;-80
2023/05/17 06:29:34;;;;;;;;;26.50;20.00;;;;;;;;6366687;22;45633;-80
2023/05/17 06:31:59;;;;;;;;;23.50;20.75;;;;;;;;6369637;22;46158;-84
2023/05/17 06:34:25;;;;;;;;;21.00;16.75;;;;;;;;6369230;22;45220;-81
2023/05/17 06:36:50;;;;;;;;;16.50;14.75;;;;;;;;6370824;22;45394;-81
2023/05/17 06:39:15;;;;;;;;;18.75;13.50;;;;;;;;6370229;22;45240;-81
2023/05/17 06:41:40;;;;;;;;;15.50;14.00;;;;;;;;6370382;22;45487;-80
2023/05/17 06:44:06;;;;;;;;;12.75;12.00;;;;;;;;6370424;22;45151;-79
2023/05/17 06:46:31;;;;;;;;;11.50;11.50;;;;;;;;6340662;22;45522;-80
2023/05/17 06:48:56;;;;;;;;;14.00;12.25;;;;;;;;6369810;22;45366;-80
2023/05/17 06:51:22;;;;;;;;;17.75;13.00;;;;;;;;6370012;22;46513;-80
2023/05/17 06:53:47;;;;;;;;;19.75;16.75;;;;;;;;6370099;22;45453;-80
2023/05/17 06:56:13;;;;;;;;;16.00;14.00;;;;;;;;6370366;22;45418;-81
2023/05/17 06:58:38;;;;;;;;;18.25;17.75;;;;;;;;6370041;22;45299;-78
2023/05/17 07:01:04;;;;;;;;;19.00;15.00;;;;;;;;6370657;22;45589;-80
2023/05/17 07:03:29;;;;;;;;;17.25;13.00;;;;;;;;6369983;22;45438;-82
2023/05/17 07:05:55;;;;;;;;;14.00;11.75;;;;;;;;6370906;22;45433;-79
2023/05/17 07:08:20;;;;;;;;;19.00;11.50;;;;;;;;6370150;22;45392;-79
2023/05/17 07:10:45;;;;;;;;;14.25;14.00;;;;;;;;6370062;22;46420;-79
2023/05/17 07:13:11;;;;;;;;;14.00;11.50;;;;;;;;6342001;22;45318;-80
2023/05/17 07:15:37;;;;;;;;;16.25;14.00;;;;;;;;6370589;22;45471;-82
2023/05/17 07:18:03;;;;;;;;;14.33;11.67;;;;;;;;6370308;22;45313;-82
2023/05/17 07:20:28;;;;;;;;;18.33;10.00;;;;;;;;6370676;22;45434;-79
2023/05/17 07:22:53;;;;;;;;;15.67;11.00;;;;;;;;6370297;22;45305;-82
2023/05/17 07:25:20;;;;;;;;;16.00;13.00;;;;;;;;6340984;22;45415;-82
2023/05/17 07:27:45;;;;;;;;;10.00;9.00;;;;;;;;6369833;22;45238;-81
2023/05/17 07:30:11;;;;;;;;;13.33;12.33;;;;;;;;6341602;22;46920;-81
2023/05/17 07:32:36;;;;;;;;;8.00;8.00;;;;;;;;6370101;22;45221;-80
2023/05/17 07:35:01;;;;;;;;;10.33;8.00;;;;;;;;6370321;22;45175;-76
2023/05/17 07:37:27;;;;;;;;;9.67;8.67;;;;;;;;6370708;22;45257;-81
2023/05/17 07:39:52;;;;;;;;;9.67;9.33;;;;;;;;6369209;22;46455;-82
2023/05/17 07:42:17;;;;;;;;;11.00;11.00;;;;;;;;6371113;22;45669;-83
2023/05/17 07:44:42;;;;;;;;;11.00;11.00;;;;;;;;6371094;22;45466;-78
2023/05/17 07:47:07;;;;;;;;;12.33;9.00;;;;;;;;6342114;22;46317;-81
2023/05/17 07:49:33;;;;;;;;;9.33;9.33;;;;;;;;6370214;22;46150;-79
2023/05/17 07:51:58;;;;;;;;;14.00;13.00;;;;;;;;6341689;22;45438;-83
2023/05/17 07:54:24;;;;;;;;;14.33;11.33;;;;;;;;6370424;22;45469;-82
2023/05/17 07:56:51;;;;;;;;;15.00;11.67;;;;;;;;6370187;22;45357;-82
2023/05/17 07:59:17;;;;;;;;;16.33;12.33;;;;;;;;6341665;22;46898;-82
2023/05/17 08:01:42;;;;;;;;;17.33;12.67;;;;;;;;6369902;22;45202;-79
2023/05/17 08:04:07;;;;;;;;;17.00;13.00;;;;;;;;6340541;22;45398;-84
2023/05/17 08:06:32;;;;;;;;;17.00;11.33;;;;;;;;6341783;22;45994;-83
2023/05/17 08:08:57;;;;;;;;;11.33;11.33;;;;;;;;6369891;22;45202;-79
2023/05/17 08:11:23;;;;;;;;;13.33;11.67;;;;;;;;6370435;22;45336;-81
2023/05/17 08:13:48;;;;;;;;;12.00;11.00;;;;;;;;6370372;22;45251;-80
2023/05/17 08:16:13;;;;;;;;;11.33;11.33;;;;;;;;6341595;22;46992;-80
2023/05/17 08:18:38;;;;;;;;;13.33;10.67;;;;;;;;6340571;22;46869;-79
2023/05/17 08:21:03;;;;;;;;;11.67;10.33;;;;;;;;6370633;22;45329;-79
2023/05/17 08:23:29;;;;;;;;;14.33;11.67;;;;;;;;6369834;22;45156;-80
2023/05/17 08:25:54;;;;;;;;;6.33;6.33;;;;;;;;6369896;22;45416;-82
2023/05/17 08:28:19;;;;;;;;;13.00;9.67;;;;;;;;6369556;22;45190;-79
2023/05/17 08:30:44;;;;;;;;;10.00;9.00;;;;;;;;6369983;22;45284;-78
2023/05/17 08:33:10;;;;;;;;;8.00;8.00;;;;;;;;6369095;22;45132;-81
2023/05/17 08:35:35;;;;;;;;;9.00;9.00;;;;;;;;6369787;22;45214;-79
2023/05/17 08:38:01;;;;;;;;;7.33;7.33;;;;;;;;6369199;22;45226;-85
2023/05/17 08:40:26;;;;;;;;;10.33;6.00;;;;;;;;6369549;22;45214;-82
2023/05/17 08:42:51;;;;;;;;;7.00;7.00;;;;;;;;6370088;22;45230;-82
2023/05/17 08:45:17;;;;;;;;;11.00;9.33;;;;;;;;6369903;22;45365;-81
2023/05/17 08:47:44;;;;;;;;;8.67;8.00;;;;;;;;6369070;22;45303;-81
2023/05/17 08:50:11;;;;;;;;;10.00;6.67;;;;;;;;6340472;22;45588;-79
2023/05/17 08:52:36;;;;;;;;;7.00;4.67;;;;;;;;6370976;22;45355;-83
2023/05/17 08:55:02;;;;;;;;;8.00;6.67;;;;;;;;6370840;22;45381;-79
2023/05/17 08:57:29;;;;;;;;;7.00;7.00;;;;;;;;6370583;22;45484;-79
2023/05/17 08:59:54;;;;;;;;;8.00;7.00;;;;;;;;6370824;22;45249;-79
2023/05/17 09:02:21;;;;;;;;;8.33;5.67;;;;;;;;6371053;22;45749;-78
2023/05/17 09:04:49;;;;;;;;;6.00;6.00;;;;;;;;6342103;22;46830;-80
2023/05/17 09:07:14;;;;;;;;;7.00;5.67;;;;;;;;6341729;22;47848;-77
2023/05/17 09:09:39;;;;;;;;;5.67;5.67;;;;;;;;6370520;22;45199;-79
2023/05/17 09:12:05;;;;;;;;;7.00;7.00;;;;;;;;6370044;22;45309;-79
2023/05/17 09:14:34;;;;;;;;;9.00;7.67;;;;;;;;6341359;22;45458;-81
2023/05/17 09:17:00;;;;;;;;;6.67;5.67;;;;;;;;6372306;22;45522;-79
2023/05/17 09:19:25;;;;;;;;;9.00;8.00;;;;;;;;6371658;22;45215;-80
2023/05/17 09:21:50;;;;;;;;;7.67;6.33;;;;;;;;6371890;22;45344;-80
2023/05/17 09:24:17;;;;;;;;;5.33;5.33;;;;;;;;6371661;22;45394;-80
2023/05/17 09:26:44;;;;;;;;;7.33;6.00;;;;;;;;6371515;22;47230;-81
2023/05/17 09:29:09;;;;;;;;;7.00;6.00;;;;;;;;6371780;22;45315;-81
2023/05/17 09:31:34;;;;;;;;;6.67;6.67;;;;;;;;6372468;22;45266;-82
2023/05/17 09:34:00;;;;;;;;;7.00;6.00;;;;;;;;6370649;22;45323;-81
2023/05/17 09:36:25;;;;;;;;;6.00;6.00;;;;;;;;6343224;22;47289;-81
2023/05/17 09:38:55;;;;;;;;;5.00;5.00;;;;;;;;6371880;22;45290;-82
2023/05/17 09:41:21;;;;;;;;;3.33;3.00;;;;;;;;6343764;22;45338;-81
2023/05/17 09:43:46;;;;;;;;;5.33;5.33;;;;;;;;6371803;22;45234;-81
2023/05/17 09:46:11;;;;;;;;;8.33;4.33;;;;;;;;6371129;22;45373;-81
2023/05/17 09:48:37;;;;;;;;;7.67;6.33;;;;;;;;6371465;22;45264;-82
2023/05/17 09:51:02;;;;;;;;;7.67;5.00;;;;;;;;6342845;22;45336;-79
2023/05/17 09:53:29;;;;;;;;;5.00;5.00;;;;;;;;6343045;22;47192;-78
2023/05/17 09:55:56;;;;;;;;;12.33;5.67;;;;;;;;6371888;22;46411;-77
2023/05/17 09:58:21;;;;;;;;;8.33;6.00;;;;;;;;6371864;22;45241;-80
2023/05/17 10:00:50;;;;;;;;;7.75;6.00;;;;;;;;6344079;22;45199;-80
2023/05/17 10:03:16;;;;;;;;;7.67;7.00;;;;;;;;6370599;22;45219;-79
2023/05/17 10:05:42;;;;;;;;;7.50;6.75;;;;;;;;6372034;22;45583;-80
2023/05/17 10:08:08;;;;;;;;;4.75;4.00;;;;;;;;6372157;22;45214;-80
2023/05/17 10:10:35;;;;;;;;;9.33;8.33;;;;;;;;6371633;22;45231;-79
2023/05/17 10:13:03;;;;;;;;;7.25;5.50;;;;;;;;6372323;22;45286;-81
2023/05/17 10:15:28;;;;;;;;;6.50;5.75;;;;;;;;6371309;22;45288;-79
2023/05/17 10:17:54;;;;;;;;;5.50;4.50;;;;;;;;6342798;22;45172;-81
2023/05/17 10:20:20;;;;;;;;;5.50;5.00;;;;;;;;6344059;22;45173;-81
2023/05/17 10:22:45;;;;;;;;;10.00;6.00;;;;;;;;6372601;22;45234;-81
2023/05/17 10:25:11;;;;;;;;;6.00;5.00;;;;;;;;6372097;22;46100;-82
2023/05/17 10:27:36;;;;;;;;;10.50;6.00;;;;;;;;6371680;22;45256;-80
2023/05/17 10:30:02;;;;;;;;;13.33;11.33;;;;;;;;6372340;22;45209;-82
2023/05/17 10:32:27;;;;;;;;;2.25;1.50;;;;;;;;6370802;22;45292;-82
2023/05/17 10:34:53;;;;;;;;;3.50;3.50;;;;;;;;6373203;22;45352;-80
2023/05/17 10:37:20;;;;;;;;;6.00;3.50;;;;;;;;6372520;22;45642;-79
2023/05/17 10:39:45;;;;;;;;;3.75;3.75;;;;;;;;6372246;22;45277;-78
2023/05/17 10:42:12;;;;;;;;;6.00;3.75;;;;;;;;6371359;22;45444;-80
2023/05/17 10:44:37;;;;;;;;;2.00;2.00;;;;;;;;6343159;22;47711;-79
2023/05/17 10:47:03;;;;;;;;;3.00;3.00;;;;;;;;6372345;22;45237;-80
2023/05/17 10:49:29;;;;;;;;;3.75;3.25;;;;;;;;6371721;22;45203;-80
2023/05/17 10:51:58;;;;;;;;;6.00;4.50;;;;;;;;6371731;22;45379;-80
2023/05/17 10:54:34;;;;;;;;;5.25;5.00;;;;;;;;6371739;22;45396;-80
2023/05/17 10:57:03;;;;;;;;;8.50;8.50;;;;;;;;6371684;22;45305;-80
2023/05/17 10:59:30;;;;;;;;;5.50;5.00;;;;;;;;6371470;22;45153;-78
2023/05/17 11:01:59;;;;;;;;;3.00;3.00;;;;;;;;6343545;22;45446;-79
2023/05/17 11:04:25;;;;;;;;;7.00;4.50;;;;;;;;6341705;22;47290;-80
2023/05/17 11:07:10;;;;;;;;;3.25;3.25;;;;;;;;6342455;22;45561;-80
2023/05/17 11:09:35;;;;;;;;;3.50;3.50;;;;;;;;6341872;22;45261;-80
2023/05/17 11:12:08;;;;;;;;;4.00;4.00;;;;;;;;6371506;22;45233;-78
2023/05/17 11:14:45;;;;;;;;;3.25;3.00;;;;;;;;6341048;22;47845;-80
2023/05/17 11:17:13;;;;;;;;;2.25;2.25;;;;;;;;6371077;22;45285;-79
2023/05/17 11:19:48;;;;;;;;;2.75;2.50;;;;;;;;6343440;22;45488;-79
2023/05/17 11:22:14;;;;;;;;;3.00;3.00;;;;;;;;6371676;22;45124;-79
2023/05/17 11:24:42;;;;;;;;;2.50;2.50;;;;;;;;6371922;22;46460;-79
2023/05/17 11:27:08;;;;;;;;;3.00;3.00;;;;;;;;6343023;22;45389;-79
2023/05/17 11:29:33;;;;;;;;;3.00;3.00;;;;;;;;6371682;22;45368;-78
2023/05/17 11:32:04;;;;;;;;;2.67;2.67;;;;;;;;6371415;22;45213;-79
2023/05/17 11:34:31;;;;;;;;;2.67;2.00;;;;;;;;6370632;22;45398;-81
2023/05/17 11:36:57;;;;;;;;;4.00;4.00;;;;;;;;6370865;22;45372;-80
2023/05/17 11:39:22;;;;;;;;;3.00;1.00;;;;;;;;6370834;22;45492;-80
2023/05/17 11:41:52;;;;;;;;;2.50;2.50;;;;;;;;6371335;22;45202;-80
2023/05/17 11:44:24;;;;;;;;;5.00;3.00;;;;;;;;6343222;22;47778;-82
2023/05/17 11:46:49;;;;;;;;;3.00;3.00;;;;;;;;6371947;22;45343;-77
2023/05/17 11:49:14;;;;;;;;;2.00;2.00;;;;;;;;6371167;22;45250;-75
2023/05/17 11:51:40;;;;;;;;;4.25;2.00;;;;;;;;6371505;22;45276;-76
2023/05/17 11:54:06;;;;;;;;;2.00;1.50;;;;;;;;6370821;22;45293;-75
2023/05/17 11:56:35;;;;;;;;;2.00;2.00;;;;;;;;6371598;22;45240;-76
2023/05/17 11:59:00;;;;;;;;;5.00;4.25;;;;;;;;6371202;22;45232;-76
2023/05/17 12:01:26;;;;;;;;;4.25;3.00;;;;;;;;6371389;22;45412;-75
2023/05/17 12:03:56;;;;;;;;;3.50;2.00;;;;;;;;6370274;22;46215;-80
2023/05/17 12:06:21;;;;;;;;;3.00;3.00;;;;;;;;6371113;22;45271;-76
2023/05/17 12:08:46;;;;;;;;;3.00;3.00;;;;;;;;6371303;22;44699;-76
2023/05/17 12:11:13;;;;;;;;;4.50;3.00;;;;;;;;6341595;22;45657;-75
2023/05/17 12:13:40;;;;;;;;;3.00;2.00;;;;;;;;6371267;22;46479;-76
2023/05/17 12:16:10;;;;;;;;;6.50;5.00;;;;;;;;6368544;22;45247;-77
2023/05/17 12:18:36;;;;;;;;;2.25;2.00;;;;;;;;6370832;22;45449;-77
2023/05/17 12:21:01;;;;;;;;;1.25;1.25;;;;;;;;6340860;22;46478;-77
2023/05/17 12:23:31;;;;;;;;;2.25;2.25;;;;;;;;6342517;22;47390;-76
2023/05/17 12:26:03;;;;;;;;;3.50;1.00;;;;;;;;6372057;22;45253;-75
2023/05/17 12:28:28;;;;;;;;;3.75;3.00;;;;;;;;6372615;22;45483;-76
2023/05/17 12:30:56;;;;;;;;;4.00;3.00;;;;;;;;6372258;22;45136;-76
2023/05/17 12:33:22;;;;;;;;;1.75;1.75;;;;;;;;6370705;22;45640;-76
2023/05/17 12:35:47;;;;;;;;;5.00;4.00;;;;;;;;6342694;22;45309;-75
2023/05/17 12:38:12;;;;;;;;;2.75;2.75;;;;;;;;6371133;22;45340;-76
2023/05/17 12:40:40;;;;;;;;;3.75;1.25;;;;;;;;6370233;22;45333;-76
2023/05/17 12:43:08;;;;;;;;;2.50;1.50;;;;;;;;6370644;22;45700;-76
2023/05/17 12:45:33;;;;;;;;;3.00;2.00;;;;;;;;6371005;22;45311;-77
2023/05/17 12:47:59;;;;;;;;;2.75;1.75;;;;;;;;6371047;22;45274;-80
2023/05/17 12:50:25;;;;;;;;;4.50;3.25;;;;;;;;6370950;22;45344;-80
2023/05/17 12:52:50;;;;;;;;;3.00;3.00;;;;;;;;6370873;22;46434;-80
2023/05/17 12:55:15;;;;;;;;;2.25;2.25;;;;;;;;6371521;22;44562;-78
2023/05/17 12:57:47;;;;;;;;;4.75;3.00;;;;;;;;6371485;22;45185;-78
2023/05/17 13:00:13;;;;;;;;;3.33;2.00;;;;;;;;6370995;22;45172;-80
2023/05/17 13:02:40;;;;;;;;;4.75;4.75;;;;;;;;6370482;22;45330;-79
2023/05/17 13:05:15;;;;;;;;;3.75;3.00;;;;;;;;6342834;22;45293;-78
2023/05/17 13:07:40;;;;;;;;;3.50;3.50;;;;;;;;6370550;22;45382;-79
2023/05/17 13:10:18;;;;;;;;;3.25;3.00;;;;;;;;6370121;22;45326;-79
2023/05/17 13:12:52;;;;;;;;;2.00;0.00;;;;;;;;6370633;22;45488;-76
2023/05/17 13:15:18;;;;;;;;;4.00;3.00;;;;;;;;6369069;22;45174;-78
2023/05/17 13:17:48;;;;;;;;;3.75;2.50;;;;;;;;6369884;22;45247;-73
2023/05/17 13:20:13;;;;;;;;;6.00;2.00;;;;;;;;6370475;22;45380;-73
2023/05/17 13:22:45;;;;;;;;;3.00;3.00;;;;;;;;6370400;22;45124;-73
2023/05/17 13:25:10;;;;;;;;;4.25;2.75;;;;;;;;6370495;22;45192;-73
2023/05/17 13:27:36;;;;;;;;;4.50;3.50;;;;;;;;6370808;22;45273;-73
2023/05/17 13:30:01;;;;;;;;;1.33;1.00;;;;;;;;6341837;22;45547;-73
2023/05/17 13:32:26;;;;;;;;;1.75;1.75;;;;;;;;6368297;22;45513;-74
2023/05/17 13:34:52;;;;;;;;;5.00;2.00;;;;;;;;6319318;22;1169838;-74
2023/05/17 13:37:17;;;;;;;;;4.50;2.00;;;;;;;;6371705;22;45163;-75
2023/05/17 13:39:42;;;;;;;;;3.00;3.00;;;;;;;;6342334;22;45816;-74
2023/05/17 13:42:08;;;;;;;;;3.25;2.25;;;;;;;;6370960;22;46481;-74
2023/05/17 13:44:33;;;;;;;;;2.00;2.00;;;;;;;;6344118;22;45577;-74
2023/05/17 13:46:59;;;;;;;;;3.50;3.00;;;;;;;;6372912;22;45298;-74
2023/05/17 13:49:24;;;;;;;;;2.00;2.00;;;;;;;;6369779;22;45492;-74
2023/05/17 13:51:50;;;;;;;;;3.00;1.50;;;;;;;;6371516;22;45196;-74
2023/05/17 13:54:16;;;;;;;;;3.25;1.25;;;;;;;;6343340;22;45333;-73
2023/05/17 13:56:41;;;;;;;;;2.75;2.75;;;;;;;;6343086;22;45293;-73
2023/05/17 13:59:06;;;;;;;;;2.00;1.00;;;;;;;;6372086;22;45493;-74
2023/05/17 14:01:31;;;;;;;;;4.00;2.25;;;;;;;;6371693;22;46808;-73
2023/05/17 14:03:57;;;;;;;;;3.00;3.00;;;;;;;;6371992;22;45226;-74
2023/05/17 14:06:22;;;;;;;;;2.00;2.00;;;;;;;;6372682;22;45199;-73
2023/05/17 14:08:48;;;;;;;;;1.00;1.00;;;;;;;;6372100;22;45227;-74
2023/05/17 14:11:13;;;;;;;;;1.00;1.00;;;;;;;;6372354;22;46334;-74
2023/05/17 14:13:39;;;;;;;;;0.75;0.75;;;;;;;;6371766;22;45262;-74
2023/05/17 14:16:05;;;;;;;;;4.00;2.00;;;;;;;;6372468;22;45183;-75
2023/05/17 14:18:31;;;;;;;;;2.00;2.00;;;;;;;;6371640;22;45277;-75
2023/05/17 14:20:56;;;;;;;;;3.25;2.25;;;;;;;;6371810;22;45647;-74
2023/05/17 14:23:21;;;;;;;;;3.25;3.00;;;;;;;;6372130;22;45294;-74
2023/05/17 14:25:48;;;;;;;;;3.00;0.50;;;;;;;;6372092;22;45185;-75
2023/05/17 14:28:13;;;;;;;;;2.00;2.00;;;;;;;;6343716;22;46120;-74
2023/05/17 14:30:39;;;;;;;;;1.00;1.00;;;;;;;;6372265;22;45212;-73
2023/05/17 14:33:04;;;;;;;;;4.00;2.33;;;;;;;;6343006;22;45183;-74
2023/05/17 14:35:29;;;;;;;;;2.00;1.00;;;;;;;;6372195;22;45164;-73
2023/05/17 14:37:55;;;;;;;;;2.00;2.00;;;;;;;;6371658;22;45237;-72
2023/05/17 14:40:20;;;;;;;;;2.50;2.50;;;;;;;;6372617;22;46389;-73
2023/05/17 14:42:46;;;;;;;;;3.00;1.00;;;;;;;;6373328;22;45231;-73
2023/05/17 14:45:11;;;;;;;;;3.00;2.00;;;;;;;;6373086;22;45148;-73
2023/05/17 14:47:36;;;;;;;;;2.00;2.00;;;;;;;;6371914;22;45436;-73
2023/05/17 14:50:02;;;;;;;;;3.00;1.25;;;;;;;;6372169;22;45303;-74
2023/05/17 14:52:27;;;;;;;;;5.00;3.00;;;;;;;;6372137;22;45249;-73
2023/05/17 14:54:52;;;;;;;;;4.00;3.00;;;;;;;;6343465;22;45242;-73
2023/05/17 14:57:20;;;;;;;;;2.75;2.75;;;;;;;;6371379;22;45162;-73
2023/05/17 14:59:45;;;;;;;;;3.00;3.00;;;;;;;;6372057;22;45462;-73
2023/05/17 15:02:10;;;;;;;;;4.00;4.00;;;;;;;;6371765;22;45225;-73
2023/05/17 15:04:35;;;;;;;;;3.00;3.00;;;;;;;;6371837;22;45243;-73
2023/05/17 15:07:01;;;;;;;;;3.00;3.00;;;;;;;;6372065;22;45223;-73
2023/05/17 15:09:26;;;;;;;;;3.00;3.00;;;;;;;;6371415;22;45515;-73
2023/05/17 15:11:51;;;;;;;;;4.75;4.75;;;;;;;;6371143;22;45305;-73
2023/05/17 15:14:23;;;;;;;;;3.00;3.00;;;;;;;;6371820;22;45267;-73
2023/05/17 15:16:50;;;;;;;;;4.00;4.00;;;;;;;;6342940;22;46034;-72
2023/05/17 15:19:16;;;;;;;;;6.00;3.00;;;;;;;;6371163;22;46086;-73
2023/05/17 15:21:41;;;;;;;;;4.00;4.00;;;;;;;;6371875;22;45284;-73
2023/05/17 15:24:06;;;;;;;;;4.00;4.00;;;;;;;;6371740;22;45282;-73
2023/05/17 15:26:32;;;;;;;;;4.00;3.33;;;;;;;;6343402;22;45363;-73
2023/05/17 15:28:57;;;;;;;;;5.00;4.00;;;;;;;;6371920;22;45242;-72
2023/05/17 15:31:23;;;;;;;;;4.67;4.67;;;;;;;;6343429;22;45305;-72
2023/05/17 15:33:48;;;;;;;;;3.67;3.67;;;;;;;;6371268;22;45416;-73
2023/05/17 15:36:15;;;;;;;;;4.33;4.00;;;;;;;;6372100;22;45168;-73
2023/05/17 15:38:40;;;;;;;;;6.33;3.67;;;;;;;;6370951;22;47397;-73
2023/05/17 15:41:06;;;;;;;;;4.67;4.00;;;;;;;;6371841;22;45230;-72
2023/05/17 15:43:32;;;;;;;;;4.67;3.67;;;;;;;;6341660;22;45204;-73
2023/05/17 15:45:57;;;;;;;;;6.00;3.67;;;;;;;;6371435;22;45258;-73
2023/05/17 15:48:24;;;;;;;;;5.33;4.00;;;;;;;;6370597;22;45348;-73
2023/05/17 15:50:50;;;;;;;;;0.00;0.00;;;;;;;;6370802;22;45326;-73
2023/05/17 15:53:15;;;;;;;;;5.00;4.00;;;;;;;;6342150;22;45309;-73
2023/05/17 15:55:40;;;;;;;;;3.75;3.75;;;;;;;;6372080;22;45395;-73
2023/05/17 15:58:08;;;;;;;;;4.25;3.25;;;;;;;;6371377;22;46228;-74
2023/05/17 16:00:33;;;;;;;;;6.00;3.00;;;;;;;;6372085;22;45295;-72
2023/05/17 16:02:58;;;;;;;;;4.00;4.00;;;;;;;;6371832;22;45200;-73
2023/05/17 16:05:24;;;;;;;;;5.00;5.00;;;;;;;;6372268;22;45887;-72
2023/05/17 16:07:49;;;;;;;;;5.00;5.00;;;;;;;;6372660;22;45716;-73
2023/05/17 16:10:14;;;;;;;;;4.00;4.00;;;;;;;;6372112;22;45064;-72
2023/05/17 16:12:40;;;;;;;;;5.33;3.67;;;;;;;;6371835;22;45227;-73
2023/05/17 16:15:05;;;;;;;;;5.33;5.33;;;;;;;;6371271;22;45474;-75
2023/05/17 16:17:30;;;;;;;;;6.00;4.00;;;;;;;;6372047;22;45451;-72
2023/05/17 16:19:55;;;;;;;;;6.33;5.67;;;;;;;;6372887;22;45123;-73
2023/05/17 16:22:20;;;;;;;;;5.67;5.67;;;;;;;;6343736;22;45187;-73
2023/05/17 16:24:46;;;;;;;;;4.00;2.33;;;;;;;;6372473;22;45210;-72
2023/05/17 16:27:11;;;;;;;;;4.67;4.67;;;;;;;;6372033;22;46960;-73
2023/05/17 16:29:38;;;;;;;;;4.00;4.00;;;;;;;;6372580;22;45206;-71
2023/05/17 16:32:04;;;;;;;;;4.67;4.67;;;;;;;;6371797;22;45254;-72
2023/05/17 16:34:29;;;;;;;;;4.67;4.67;;;;;;;;6371010;22;45313;-71
2023/05/17 16:36:55;;;;;;;;;7.00;5.67;;;;;;;;6372163;22;46230;-71
2023/05/17 16:39:20;;;;;;;;;6.33;6.00;;;;;;;;6343035;22;45306;-72
2023/05/17 16:41:45;;;;;;;;;4.67;4.67;;;;;;;;6372577;22;45837;-72
2023/05/17 16:44:10;;;;;;;;;5.00;5.00;;;;;;;;6342806;22;45808;-71
2023/05/17 16:46:36;;;;;;;;;4.00;3.67;;;;;;;;6343822;22;46549;-72
2023/05/17 16:49:01;;;;;;;;;4.67;4.33;;;;;;;;6372057;22;45351;-71
2023/05/17 16:51:27;;;;;;;;;6.33;5.33;;;;;;;;6372746;22;45537;-72
2023/05/17 16:53:52;;;;;;;;;8.00;6.00;;;;;;;;6372401;22;45242;-73
2023/05/17 16:56:17;;;;;;;;;6.67;6.33;;;;;;;;6372459;22;46683;-73
2023/05/17 16:58:42;;;;;;;;;6.33;6.33;;;;;;;;6372222;22;45226;-73
2023/05/17 17:01:07;;;;;;;;;4.67;4.67;;;;;;;;6372684;22;45360;-74
2023/05/17 17:03:33;;;;;;;;;6.00;4.67;;;;;;;;6372155;22;45461;-73
2023/05/17 17:05:58;;;;;;;;;9.33;5.67;;;;;;;;6343780;22;46897;-72
2023/05/17 17:08:23;;;;;;;;;24.33;24.33;;;;;;;;6372280;22;45387;-72
2023/05/17 17:10:48;;;;;;;;;10.00;8.33;;;;;;;;6372960;22;45210;-72
2023/05/17 17:13:13;;;;;;;;;0.67;0.00;;;;;;;;6372425;22;45224;-72
2023/05/17 17:15:40;;;;;;;;;5.67;5.67;;;;;;;;6372861;22;45582;-72
2023/05/17 17:18:05;;;;;;;;;14.67;14.00;;;;;;;;6343014;22;45370;-74
2023/05/17 17:20:30;;;;;;;;;6.67;6.67;;;;;;;;6372727;22;45156;-73
2023/05/17 17:22:55;;;;;;;;;10.67;10.67;;;;;;;;6372189;22;45238;-73
2023/05/17 17:25:23;;;;;;;;;14.00;10.67;;;;;;;;6372131;22;47012;-74
2023/05/17 17:27:48;;;;;;;;;7.33;7.00;;;;;;;;6372555;22;45237;-73
2023/05/17 17:30:13;;;;;;;;;7.33;6.00;;;;;;;;6372935;22;45097;-73
2023/05/17 17:32:39;;;;;;;;;8.33;7.33;;;;;;;;6371862;22;45189;-72
2023/05/17 17:35:04;;;;;;;;;8.00;6.33;;;;;;;;6372154;22;45359;-72
2023/05/17 17:37:30;;;;;;;;;5.33;5.00;;;;;;;;6371195;22;45328;-73
2023/05/17 17:39:55;;;;;;;;;7.67;5.67;;;;;;;;6343413;22;45458;-73
2023/05/17 17:42:20;;;;;;;;;9.00;7.67;;;;;;;;6372334;22;45301;-74
2023/05/17 17:44:45;;;;;;;;;7.00;6.00;;;;;;;;6372459;22;46422;-73
2023/05/17 17:47:10;;;;;;;;;5.00;4.00;;;;;;;;6371934;22;45204;-72
2023/05/17 17:49:36;;;;;;;;;6.33;5.00;;;;;;;;6372522;22;45286;-73
2023/05/17 17:52:01;;;;;;;;;6.33;5.00;;;;;;;;6342921;22;46525;-73
2023/05/17 17:54:26;;;;;;;;;6.33;5.67;;;;;;;;6372355;22;45417;-72
2023/05/17 17:56:51;;;;;;;;;6.00;6.00;;;;;;;;6372792;22;45437;-72
2023/05/17 17:59:17;;;;;;;;;5.00;4.67;;;;;;;;6372666;22;45310;-72
2023/05/17 18:01:42;;;;;;;;;5.00;5.00;;;;;;;;6372947;22;45274;-71
2023/05/17 18:04:08;;;;;;;;;5.33;3.00;;;;;;;;6343275;22;46987;-72
2023/05/17 18:06:33;;;;;;;;;5.00;3.33;;;;;;;;6372144;22;45298;-72
2023/05/17 18:08:58;;;;;;;;;5.67;4.67;;;;;;;;6344001;22;45364;-72
2023/05/17 18:11:24;;;;;;;;;3.67;3.67;;;;;;;;6372552;22;45345;-72
2023/05/17 18:13:50;;;;;;;;;6.00;6.00;;;;;;;;6372546;22;45325;-72
2023/05/17 18:16:15;;;;;;;;;6.67;3.67;;;;;;;;6372068;22;45402;-72
2023/05/17 18:18:40;;;;;;;;;5.33;4.00;;;;;;;;6372207;22;45150;-72
2023/05/17 18:21:09;;;;;;;;;4.00;3.00;;;;;;;;6343453;22;46141;-72
2023/05/17 18:23:34;;;;;;;;;5.00;5.00;;;;;;;;6372042;22;45523;-72
2023/05/17 18:26:00;;;;;;;;;5.33;4.00;;;;;;;;6372143;22;45326;-71
2023/05/17 18:28:26;;;;;;;;;3.00;3.00;;;;;;;;6372858;22;45378;-72
2023/05/17 18:30:51;;;;;;;;;4.00;4.00;;;;;;;;6372278;22;45527;-73
2023/05/17 18:33:16;;;;;;;;;4.00;4.00;;;;;;;;6371101;22;45231;-73
2023/05/17 18:35:42;;;;;;;;;4.00;4.00;;;;;;;;6372594;22;45314;-73
2023/05/17 18:38:08;;;;;;;;;4.33;4.33;;;;;;;;6372498;22;45291;-73
2023/05/17 18:40:33;;;;;;;;;2.67;1.00;;;;;;;;6372450;22;45294;-72
2023/05/17 18:42:58;;;;;;;;;4.33;3.00;;;;;;;;6372164;22;45661;-73
2023/05/17 18:45:23;;;;;;;;;4.33;3.67;;;;;;;;6343196;22;45608;-73
2023/05/17 18:47:48;;;;;;;;;5.33;3.00;;;;;;;;6372216;22;45313;-73
2023/05/17 18:50:14;;;;;;;;;4.33;3.00;;;;;;;;6372359;22;45532;-74
2023/05/17 18:52:39;;;;;;;;;3.67;3.67;;;;;;;;6371114;22;45441;-73
2023/05/17 18:55:04;;;;;;;;;4.00;2.00;;;;;;;;6372306;22;45194;-73
2023/05/17 18:57:30;;;;;;;;;3.00;3.00;;;;;;;;6372381;22;45296;-73
2023/05/17 18:59:55;;;;;;;;;3.00;3.00;;;;;;;;6372406;22;45230;-73
2023/05/17 19:02:20;;;;;;;;;3.33;3.33;;;;;;;;6371778;22;45169;-73
2023/05/17 19:04:45;;;;;;;;;4.67;3.00;;;;;;;;6372304;22;45160;-73
2023/05/17 19:07:11;;;;;;;;;2.67;2.00;;;;;;;;6372636;22;45420;-73
2023/05/17 19:09:36;;;;;;;;;3.00;3.00;;;;;;;;6372237;22;45259;-74
2023/05/17 19:12:01;;;;;;;;;4.00;4.00;;;;;;;;6371698;22;46898;-73
2023/05/17 19:14:27;;;;;;;;;3.00;3.00;;;;;;;;6371804;22;45215;-73
2023/05/17 19:16:55;;;;;;;;;4.67;2.00;;;;;;;;6372177;22;45232;-73
2023/05/17 19:19:20;;;;;;;;;1.00;1.00;;;;;;;;6371465;22;45211;-74
2023/05/17 19:21:46;;;;;;;;;3.00;3.00;;;;;;;;6372155;22;45849;-74
2023/05/17 19:24:11;;;;;;;;;3.00;3.00;;;;;;;;6372143;22;45261;-74
2023/05/17 19:26:36;;;;;;;;;4.00;4.00;;;;;;;;6372703;22;45365;-73
2023/05/17 19:29:01;;;;;;;;;4.67;4.67;;;;;;;;6371864;22;45274;-73
2023/05/17 19:31:26;;;;;;;;;30.33;23.00;;;;;;;;6342328;22;45687;-73
2023/05/17 19:33:52;;;;;;;;;18.00;16.00;;;;;;;;6342013;22;45556;-73
2023/05/17 19:36:17;;;;;;;;;40.25;33.25;;;;;;;;6370833;22;45251;-74
2023/05/17 19:38:42;;;;;;;;;7.67;7.67;;;;;;;;6342435;22;47000;-73
2023/05/17 19:41:08;;;;;;;;;5.00;5.00;;;;;;;;6371679;22;45406;-73
2023/05/17 19:43:35;;;;;;;;;11.33;7.67;;;;;;;;6343079;22;45525;-73
2023/05/17 19:46:01;;;;;;;;;9.00;8.00;;;;;;;;6371989;22;45163;-73
2023/05/17 19:48:26;;;;;;;;;7.33;5.00;;;;;;;;6370803;22;45208;-73
2023/05/17 19:50:52;;;;;;;;;8.67;7.33;;;;;;;;6370493;22;46057;-73
2023/05/17 19:53:18;;;;;;;;;6.67;5.67;;;;;;;;6371250;22;45219;-73
2023/05/17 19:55:43;;;;;;;;;7.67;7.00;;;;;;;;6343295;22;45212;-73
2023/05/17 19:58:08;;;;;;;;;4.00;2.33;;;;;;;;6371500;22;45223;-73
2023/05/17 20:00:36;;;;;;;;;5.67;4.67;;;;;;;;6371962;22;45394;-73
2023/05/17 20:03:01;;;;;;;;;5.00;5.00;;;;;;;;6370624;22;45210;-73